Weather at Chucker Farm Airport [CLOSED]

Public forecast

Using degrees Celsius for public forecast. Weather courtesy of forecast.io.

Closest aviation weather report (METAR) to Chucker Farm Airport

Closest report is Montreal International (Mirabel) Airport, 17.2 nm (31.9 km) NNE.

2024/05/22 08:00 (retrieved 18 minutes ago)

CYMX 220800Z 00000KT 25SM R06/3000VP6000FT/N MIFG SCT062 BKN250 15/15 A2983 RMK SC4CI3 SLP103

Closest aviation forecast (TAF) to Chucker Farm Airport

Closest forecast is Montreal International (Mirabel) Airport, 17.2 nm (31.9 km) NNE.

2024/05/22 06:42 (retrieved 2 hours ago)

TAF TAF CYMX 220540Z 2206/2306 VRB03KT P6SM BKN080 TEMPO 2206/2212 5SM BR SCT080 FM221200 VRB03KT P6SM BKN010 BECMG 2212/2214 SCT012 FM221600 23007KT P6SM SKC FM222200 25007KT P6SM -SHRA BKN040 PROB30 2222/2301 VRB15G30KT 2SM TSRA BR BKN020 OVC050CB FM230100 17008KT 4SM -SHRA BKN030 PROB30 2301/2304 VRB20G35KT 1SM +TSRA BKN020 OVC040CB FM230400 24012G22KT P6SM BKN030 PROB30 2304/2306 4SM TSRA BR BKN030CB RMK NXT FCST BY 221200Z